Meath Environmental Platform

Observations for Trim Market St

Time AQI Temp °C Hum % Pres Pa CO μg/m³ H₂S μg/m³ NO μg/m³ NO₂ μg/m³ O₃ μg/m³ SO₂ μg/m³ PM1 μg/m³ PM2.5 μg/m³ PM10 μg/m³
Tuesday 18 August 2026
10:04 2 24.2 57 56,243 0.26 0 2.96 11.01 12.97 0 0 1.66 1.88
10:03 2 24.2 57 56,466 0.21 0 2.92 9.3 26.53 0 0 1.64 1.91
10:02 2 24.1 58 56,711 0.23 0 2.79 9.43 35.78 0 0 2.13 4.02
10:01 2 23.9 58 56,967 0.38 0 3.11 8.48 5.57 0 0 1.6 1.95
10:00 2 23.8 58 57,286 0.22 0 3.58 11.41 42.47 0 0 1.59 2.66
09:58 2 23.5 59 57,454 0.22 0 3.39 12.16 28.1 0 0 1.55 2.01
09:55 2 23 60 57,487 0.14 0 3.64 9.3 51.83 0 0 1.51 2.05
09:54 2 22.9 61 57,466 0.16 0 3.91 7.09 23.15 0 0 1.5 2.07
09:48 2 22.2 62 57,308 0.23 0 3.05 11.47 49.13 0 0 1.44 2.13
09:43 2 21.7 63 57,165 0.21 0 4.52 15.86 40.28 0 0 1.89 2.85
09:42 2 21.6 63 57,140 0.12 0 4.56 11.74 47.5 0 0 2.38 3.53
09:40 2 21.4 64 57,074 0.17 0 3.72 8.12 49.8 0 0 1.87 2.88
09:39 2 21.3 64 57,020 0.38 0 4.16 11.75 46.1 0 0 1.38 2.21
09:38 2 21.2 64 56,981 0.09 0 3.98 9.85 55.21 0 0 1.87 4.21
09:37 2 21.2 64 56,949 0.09 0 3.79 11.94 43.72 0 0 1.86 2.88
09:36 2 21.1 64 56,909 0.08 0 3.68 9.22 55.16 0 0 1.86 3.55
09:35 2 21 64 56,872 0.08 0 3.72 10.24 54.46 0 0 1.85 2.89
09:33 2 20.9 64 56,816 0.05 0 3.51 9.68 52.23 0 0 1.84 2.9
09:31 2 20.8 64 56,713 0.1 0 3.29 9.12 51.96 0 0 1.83 2.91
09:23 2 20.5 65 56,416 0.02 0 2.79 6.83 56.91 0 0 1.3 3.6